Time;durP1;ratioP1;P1;durP2;ratioP2;P2;SDS_P1;SDS_P2;PMS_P1;PMS_P2;Temp;Humidity;BMP_temperature;BMP_pressure;BME280_temperature;BME280_humidity;BME280_pressure;Samples;Min_cycle;Max_cycle;Signal;HPM_P1;HPM_P2
2022/10/18 00:02:37;;;;;;;10.95;5.57;;;;;;;14.93;71.67;100013.88;5202890;28;20419;-71
2022/10/18 00:05:27;;;;;;;9.57;5.47;;;;;;;14.98;71.60;100012.44;5207056;28;20104;-71
2022/10/18 00:08:19;;;;;;;12.27;6.15;;;;;;;15.02;71.95;100013.84;5201889;28;20050;-70
2022/10/18 00:11:09;;;;;;;14.73;6.53;;;;;;;15.03;71.57;100014.66;5191868;28;20072;-72
2022/10/18 00:13:59;;;;;;;15.55;5.97;;;;;;;14.80;71.73;99999.03;5199401;28;20101;-72
2022/10/18 00:16:49;;;;;;;9.68;5.38;;;;;;;14.77;71.07;100015.34;5203970;28;20053;-71
2022/10/18 00:19:39;;;;;;;13.50;5.47;;;;;;;14.78;71.22;100022.38;5204248;28;20427;-72
2022/10/18 00:22:29;;;;;;;12.85;5.60;;;;;;;14.77;71.04;100015.34;5203467;28;20052;-72
2022/10/18 00:25:20;;;;;;;7.80;5.18;;;;;;;14.70;71.94;100018.72;5202317;28;20569;-71
2022/10/18 00:28:10;;;;;;;9.57;5.50;;;;;;;14.78;71.79;100019.69;5203711;28;20060;-71
2022/10/18 00:31:19;;;;;;;9.55;4.90;;;;;;;14.70;71.37;100024.94;5202293;28;20155;-71
2022/10/18 00:34:14;;;;;;;12.00;5.40;;;;;;;14.69;71.77;100027.75;5198837;28;20577;-71
2022/10/18 00:37:05;;;;;;;11.20;5.05;;;;;;;14.65;71.70;100021.84;5193136;28;20147;-71
2022/10/18 00:39:55;;;;;;;10.80;5.40;;;;;;;14.65;71.30;100013.84;5201763;28;20422;-71
2022/10/18 00:42:45;;;;;;;12.02;6.40;;;;;;;14.69;71.77;100014.38;5181092;28;20080;-71
2022/10/18 00:45:35;;;;;;;10.20;6.05;;;;;;;14.92;71.92;100007.69;5191694;28;20195;-71
2022/10/18 00:48:25;;;;;;;13.43;6.05;;;;;;;14.74;71.63;100020.16;5196622;28;20570;-71
2022/10/18 00:51:18;;;;;;;15.73;5.85;;;;;;;14.67;72.63;99992.31;5202109;28;20061;-71
2022/10/18 00:54:08;;;;;;;11.40;6.32;;;;;;;14.80;72.41;100025.75;5184937;28;20242;-71
2022/10/18 00:56:58;;;;;;;11.60;6.57;;;;;;;14.84;72.90;100023.63;5199268;28;20072;-72
2022/10/18 00:59:48;;;;;;;14.40;6.47;;;;;;;14.87;73.23;100015.31;5208318;28;20060;-72
2022/10/18 01:02:41;;;;;;;11.98;6.53;;;;;;;14.90;73.27;100025.72;5187240;28;20050;-71
2022/10/18 01:05:32;;;;;;;13.60;6.68;;;;;;;14.97;73.32;100021.47;5200255;28;20057;-71
2022/10/18 01:08:30;;;;;;;14.10;6.15;;;;;;;15.11;73.22;100033.50;5205190;28;20049;-71
2022/10/18 01:11:20;;;;;;;14.50;6.43;;;;;;;15.18;72.49;100031.06;5191755;28;20089;-72
2022/10/18 01:14:17;;;;;;;9.27;5.88;;;;;;;15.09;73.16;100026.59;5205282;28;20165;-71
2022/10/18 01:17:15;;;;;;;19.15;7.00;;;;;;;15.34;73.75;100017.06;5203495;28;20045;-71
2022/10/18 01:20:08;;;;;;;17.25;6.40;;;;;;;15.32;73.83;100013.69;5205233;28;20429;-72
2022/10/18 01:23:12;;;;;;;14.23;7.15;;;;;;;15.33;74.30;100012.69;5190272;28;20688;-71
2022/10/18 01:26:35;;;;;;;12.27;6.75;;;;;;;15.38;73.12;100018.44;5201341;28;20084;-71
2022/10/18 01:29:51;;;;;;;15.55;7.38;;;;;;;15.44;73.55;100021.34;5213187;28;20413;-72
2022/10/18 01:32:50;;;;;;;15.82;6.13;;;;;;;15.48;73.69;100030.75;5201873;28;20065;-71
2022/10/18 01:35:46;;;;;;;9.68;6.35;;;;;;;15.54;73.67;100028.50;5189485;28;20074;-72
2022/10/18 01:38:39;;;;;;;10.25;6.95;;;;;;;15.56;73.52;100016.63;5201096;28;20049;-71
2022/10/18 01:41:29;;;;;;;13.60;7.07;;;;;;;15.63;73.07;100019.53;5197755;28;20670;-71
2022/10/18 01:44:24;;;;;;;16.30;7.82;;;;;;;15.66;72.70;100021.91;5202677;28;20132;-72
2022/10/18 01:47:15;;;;;;;14.70;6.78;;;;;;;15.77;73.07;100019.06;5204261;28;20052;-71
2022/10/18 01:50:05;;;;;;;13.07;7.30;;;;;;;15.96;73.12;100024.28;5205476;28;20059;-72
2022/10/18 01:52:55;;;;;;;15.35;7.22;;;;;;;15.83;73.02;100012.28;5203236;28;20056;-71
2022/10/18 01:55:54;;;;;;;12.57;7.10;;;;;;;15.94;73.38;100025.41;5205063;28;20049;-72
2022/10/18 01:59:33;;;;;;;13.05;6.97;;;;;;;15.88;72.67;100020.66;5212143;28;20426;-72
2022/10/18 02:02:45;;;;;;;9.60;6.45;;;;;;;15.91;72.91;100023.03;5172552;28;20144;-71
2022/10/18 02:05:47;;;;;;;20.20;7.50;;;;;;;15.88;73.04;100018.00;5203076;28;20049;-72
2022/10/18 02:08:44;;;;;;;11.68;6.60;;;;;;;15.94;72.68;100014.72;5202852;28;20112;-72
2022/10/18 02:11:36;;;;;;;17.33;7.05;;;;;;;15.97;72.81;100017.91;5197902;28;20083;-72
2022/10/18 02:14:27;;;;;;;15.60;6.13;;;;;;;15.95;72.36;100017.22;5201632;28;20064;-70
2022/10/18 02:17:19;;;;;;;10.20;6.03;;;;;;;16.01;72.65;100006.91;5213912;28;20573;-71
2022/10/18 02:20:11;;;;;;;18.48;6.60;;;;;;;16.07;72.38;100006.28;5201688;28;20614;-70
2022/10/18 02:23:05;;;;;;;11.38;6.25;;;;;;;16.14;72.80;100000.16;5203540;28;20107;-70
2022/10/18 02:25:55;;;;;;;11.30;6.57;;;;;;;16.15;72.83;100001.00;5204917;28;20052;-70
2022/10/18 02:28:45;;;;;;;13.07;7.15;;;;;;;16.24;72.87;99999.25;5209636;28;20064;-70
2022/10/18 02:31:43;;;;;;;21.65;6.50;;;;;;;16.24;72.34;99992.03;5209989;28;20061;-70
2022/10/18 02:35:02;;;;;;;17.40;6.50;;;;;;;16.32;72.60;99992.09;5202033;28;20069;-70
2022/10/18 02:37:53;;;;;;;12.75;6.95;;;;;;;16.51;72.30;99992.91;5210170;28;20064;-71
2022/10/18 02:40:43;;;;;;;18.50;7.22;;;;;;;16.51;71.97;99982.19;5203498;28;20112;-71
2022/10/18 02:43:34;;;;;;;15.85;7.03;;;;;;;16.61;71.59;99986.44;5203700;28;20095;-70
2022/10/18 02:46:24;;;;;;;12.75;6.85;;;;;;;16.61;71.83;99980.25;5200170;28;20041;-71
2022/10/18 02:49:19;;;;;;;17.80;6.47;;;;;;;16.66;71.47;99980.63;5197633;28;20124;-70
2022/10/18 02:52:09;;;;;;;13.48;6.05;;;;;;;16.67;70.95;99971.56;5203530;28;20152;-71
2022/10/18 02:55:00;;;;;;;9.95;6.45;;;;;;;16.74;71.51;99990.53;5199473;28;20682;-70
2022/10/18 02:57:50;;;;;;;17.45;6.40;;;;;;;16.82;71.08;99987.91;5203533;28;20134;-71
2022/10/18 03:00:39;;;;;;;16.15;6.07;;;;;;;16.71;71.68;99988.16;5206570;28;20072;-71
2022/10/18 03:03:29;;;;;;;14.88;6.05;;;;;;;16.55;72.10;99964.81;5194152;28;20041;-70
2022/10/18 03:06:19;;;;;;;10.63;6.30;;;;;;;16.76;71.70;99988.56;5202595;28;20057;-70
2022/10/18 03:09:09;;;;;;;11.82;6.72;;;;;;;16.75;71.59;99989.56;5203109;28;20064;-70
2022/10/18 03:11:59;;;;;;;14.30;6.85;;;;;;;16.74;71.86;99983.31;5203184;28;20108;-71
2022/10/18 03:14:49;;;;;;;17.58;6.40;;;;;;;16.80;71.30;99977.38;5201966;28;20435;-71
2022/10/18 03:17:40;;;;;;;19.10;6.95;;;;;;;16.78;71.10;99982.03;5196652;28;20514;-71
2022/10/18 03:20:30;;;;;;;9.20;6.15;;;;;;;16.72;71.58;99982.66;5208701;28;20446;-70
2022/10/18 03:23:20;;;;;;;19.60;6.45;;;;;;;16.53;72.11;99977.53;5193165;28;20049;-70
2022/10/18 03:26:10;;;;;;;8.75;5.88;;;;;;;16.58;72.62;99970.69;5203441;28;20680;-70
2022/10/18 03:29:00;;;;;;;11.68;6.65;;;;;;;16.52;72.13;99971.31;5191826;28;20053;-70
2022/10/18 03:31:50;;;;;;;15.82;6.30;;;;;;;16.68;71.10;99967.88;5202409;28;20136;-70
2022/10/18 03:34:40;;;;;;;10.63;6.43;;;;;;;16.73;71.11;99978.97;5200225;28;20072;-71
2022/10/18 03:37:30;;;;;;;11.32;6.07;;;;;;;16.73;71.64;99975.47;5201968;28;20123;-70
2022/10/18 03:40:20;;;;;;;9.50;6.05;;;;;;;16.72;70.75;99977.31;5200848;28;20104;-70
2022/10/18 03:43:10;;;;;;;12.85;5.57;;;;;;;16.69;71.06;99982.97;5200593;28;20056;-70
2022/10/18 03:46:00;;;;;;;13.32;5.53;;;;;;;16.65;71.42;99986.94;5198995;28;20048;-70
2022/10/18 03:48:50;;;;;;;10.38;5.65;;;;;;;16.60;70.73;99976.72;5188849;28;20487;-70
2022/10/18 03:51:40;;;;;;;13.70;6.03;;;;;;;16.62;71.01;99979.22;5201489;28;20100;-71
2022/10/18 03:54:30;;;;;;;14.43;6.18;;;;;;;16.61;70.69;99965.00;5204691;28;20041;-71
2022/10/18 03:57:20;;;;;;;12.07;6.13;;;;;;;16.87;69.81;99961.50;5204318;28;20056;-70
2022/10/18 04:00:12;;;;;;;13.10;5.45;;;;;;;16.50;70.80;99965.28;5206702;28;20060;-70
2022/10/18 04:03:03;;;;;;;18.58;5.72;;;;;;;16.32;71.47;99959.13;5198879;28;20139;-70
2022/10/18 04:05:53;;;;;;;13.60;5.72;;;;;;;16.25;71.50;99964.28;5199669;28;20084;-70
2022/10/18 04:08:43;;;;;;;12.88;5.03;;;;;;;16.45;70.56;99984.47;5183669;28;20064;-71
2022/10/18 04:11:33;;;;;;;19.23;6.70;;;;;;;16.41;70.43;99980.44;5202468;28;20108;-73
2022/10/18 04:14:23;;;;;;;18.52;5.72;;;;;;;16.39;70.64;99971.75;5182588;28;20076;-70
2022/10/18 04:17:13;;;;;;;11.23;5.82;;;;;;;16.42;70.81;99989.31;5198194;28;20526;-71
2022/10/18 04:20:04;;;;;;;12.40;5.40;;;;;;;16.42;70.35;99982.16;5195324;28;20053;-72
2022/10/18 04:22:56;;;;;;;13.80;5.55;;;;;;;16.35;70.42;99990.94;5194483;28;20061;-70
2022/10/18 04:25:46;;;;;;;12.52;4.95;;;;;;;16.28;70.59;99997.91;5204465;28;20049;-70
2022/10/18 04:28:38;;;;;;;12.55;5.22;;;;;;;16.29;71.02;99992.44;5201131;28;20053;-71
2022/10/18 04:31:29;;;;;;;14.48;5.60;;;;;;;16.16;71.14;99975.94;5198414;28;20049;-71
2022/10/18 04:34:20;;;;;;;13.77;5.47;;;;;;;16.20;71.22;99996.03;5184277;28;20049;-71
2022/10/18 04:37:10;;;;;;;7.15;5.00;;;;;;;16.30;71.09;100003.97;5203418;28;20057;-71
2022/10/18 04:40:00;;;;;;;13.05;6.10;;;;;;;16.28;71.62;100011.31;5197644;28;20570;-71
2022/10/18 04:42:50;;;;;;;12.85;5.97;;;;;;;16.04;72.78;100014.63;5185294;28;20694;-71
2022/10/18 04:45:40;;;;;;;13.23;5.72;;;;;;;16.07;73.10;100008.97;5191840;28;20176;-71
2022/10/18 04:48:30;;;;;;;23.58;7.90;;;;;;;16.24;71.61;100008.09;5198729;28;20208;-73
2022/10/18 04:51:21;;;;;;;13.23;7.15;;;;;;;16.18;71.09;100006.03;5204981;28;20045;-72
2022/10/18 04:54:11;;;;;;;21.30;6.25;;;;;;;16.13;70.93;99995.81;5183240;28;20057;-70
2022/10/18 04:57:01;;;;;;;11.50;5.50;;;;;;;16.09;71.76;100001.63;5193947;28;20050;-70
2022/10/18 04:59:51;;;;;;;8.55;5.60;;;;;;;16.22;71.12;100010.09;5198396;28;20053;-74
2022/10/18 05:02:41;;;;;;;13.23;6.60;;;;;;;16.04;71.52;99988.72;5199705;28;20120;-70
2022/10/18 05:05:31;;;;;;;12.40;6.10;;;;;;;16.14;71.39;100004.69;5199480;28;20427;-70
2022/10/18 05:08:41;;;;;;;10.38;5.28;;;;;;;16.03;71.17;100012.97;5185257;28;20080;-70
2022/10/18 05:11:32;;;;;;;9.70;5.10;;;;;;;15.92;71.80;100008.66;5184643;28;23244;-70
2022/10/18 05:14:22;;;;;;;8.05;5.28;;;;;;;15.94;71.67;100004.00;5197911;28;20091;-70
2022/10/18 05:17:11;;;;;;;9.88;4.63;;;;;;;16.06;71.15;100000.13;5195363;28;20064;-70
2022/10/18 05:20:02;;;;;;;11.18;5.68;;;;;;;15.98;71.10;99984.81;5200248;28;20049;-70
2022/10/18 05:22:52;;;;;;;11.05;5.53;;;;;;;16.09;70.71;99998.94;5200705;28;20049;-70
2022/10/18 05:25:43;;;;;;;9.82;5.38;;;;;;;16.05;70.63;99992.22;5196182;28;20467;-70
2022/10/18 05:28:34;;;;;;;10.80;4.95;;;;;;;16.03;71.30;99992.38;5196201;28;20710;-70
2022/10/18 05:31:29;;;;;;;14.02;4.90;;;;;;;16.08;70.28;99978.53;5198461;28;20049;-70
2022/10/18 05:34:19;;;;;;;11.27;4.88;;;;;;;16.20;70.86;99993.34;5196890;28;20147;-70
2022/10/18 05:37:10;;;;;;;12.00;4.85;;;;;;;16.11;70.86;99999.63;5197977;28;20056;-70
2022/10/18 05:40:00;;;;;;;10.18;5.05;;;;;;;16.08;70.79;99989.25;5199305;28;20089;-70
2022/10/18 05:42:51;;;;;;;8.27;4.93;;;;;;;16.04;70.66;99996.75;5182783;28;20446;-70
2022/10/18 05:45:47;;;;;;;9.77;5.07;;;;;;;15.98;70.68;100008.88;5200482;28;20518;-70
2022/10/18 05:48:37;;;;;;;8.77;5.18;;;;;;;15.91;70.78;99994.44;5201835;28;20053;-70
2022/10/18 05:51:27;;;;;;;11.20;5.28;;;;;;;15.91;70.66;99983.75;5191118;28;20061;-70
2022/10/18 05:54:17;;;;;;;8.48;4.65;;;;;;;15.81;70.82;99988.34;5204771;28;20042;-71
2022/10/18 05:57:08;;;;;;;9.23;4.88;;;;;;;15.91;70.77;99993.63;5205079;28;20098;-70
2022/10/18 05:59:58;;;;;;;8.43;4.95;;;;;;;15.82;71.05;99984.66;5204532;28;20053;-70
2022/10/18 06:02:48;;;;;;;11.07;5.07;;;;;;;15.88;71.17;99988.56;5206324;28;20059;-70
2022/10/18 06:05:38;;;;;;;9.13;5.10;;;;;;;15.90;71.12;99982.09;5189121;28;20053;-70
2022/10/18 06:08:34;;;;;;;9.98;5.15;;;;;;;15.87;71.24;100003.78;5201340;28;20529;-69
2022/10/18 06:11:25;;;;;;;10.75;5.00;;;;;;;15.96;71.51;100013.56;5188849;28;20155;-69
2022/10/18 06:14:14;;;;;;;10.52;5.40;;;;;;;15.90;70.86;100011.50;5198095;28;20052;-69
2022/10/18 06:17:05;;;;;;;10.77;5.40;;;;;;;15.90;70.68;100016.84;5199932;28;20564;-69
2022/10/18 06:19:55;;;;;;;12.15;5.20;;;;;;;15.93;70.76;100013.88;5201428;28;20131;-69
2022/10/18 06:22:45;;;;;;;7.28;4.90;;;;;;;15.84;71.38;99974.66;5202263;28;20150;-69
2022/10/18 06:25:34;;;;;;;13.55;6.13;;;;;;;16.23;71.46;99998.41;5199918;28;20056;-68
2022/10/18 06:28:25;;;;;;;12.38;5.82;;;;;;;16.27;71.03;100005.13;5196579;28;20041;-67
2022/10/18 06:31:16;;;;;;;10.23;5.85;;;;;;;16.34;71.15;100006.16;5194984;28;20045;-72
2022/10/18 06:34:06;;;;;;;8.60;5.97;;;;;;;16.45;70.74;100010.41;5198209;28;20069;-70
2022/10/18 06:36:57;;;;;;;14.60;6.03;;;;;;;16.53;70.81;99998.94;5195299;28;20099;-69
2022/10/18 06:39:47;;;;;;;9.35;5.60;;;;;;;16.79;70.35;100009.69;5202357;28;20665;-68
2022/10/18 06:42:37;;;;;;;15.43;5.47;;;;;;;16.84;70.82;100012.72;5196481;28;20065;-69
2022/10/18 06:45:28;;;;;;;20.08;6.25;;;;;;;16.85;70.33;100009.88;5199048;28;20045;-69
2022/10/18 06:48:18;;;;;;;9.63;5.85;;;;;;;16.85;70.52;100012.56;5197511;28;20530;-69
2022/10/18 06:51:14;;;;;;;10.40;5.45;;;;;;;16.94;70.24;100026.00;5192999;28;20092;-73
2022/10/18 06:54:04;;;;;;;16.85;5.75;;;;;;;16.91;70.26;100025.28;5196634;28;20667;-70
2022/10/18 06:57:07;;;;;;;11.05;5.15;;;;;;;16.99;70.37;100019.16;5185826;28;20096;-70
2022/10/18 06:59:57;;;;;;;16.35;5.80;;;;;;;17.04;70.63;100029.38;5199350;28;20115;-70
2022/10/18 07:02:46;;;;;;;12.32;6.03;;;;;;;17.08;70.33;100023.53;5186710;28;20454;-69
2022/10/18 07:05:36;;;;;;;8.05;5.45;;;;;;;17.17;69.95;100018.22;5198218;28;20423;-70
2022/10/18 07:08:27;;;;;;;9.60;5.72;;;;;;;17.08;69.94;100022.69;5201614;28;20104;-70
2022/10/18 07:11:24;;;;;;;13.10;6.28;;;;;;;17.25;68.76;100012.88;5198086;28;20052;-70
2022/10/18 07:14:14;;;;;;;14.05;6.05;;;;;;;17.24;69.24;100022.75;5200536;28;20136;-71
2022/10/18 07:17:06;;;;;;;14.27;5.80;;;;;;;17.19;69.50;100024.28;5207770;28;20045;-70
2022/10/18 07:19:56;;;;;;;12.23;5.75;;;;;;;17.31;69.09;100026.47;5200486;28;20627;-71
2022/10/18 07:22:46;;;;;;;11.45;5.93;;;;;;;17.25;68.97;100037.88;5206245;28;20061;-71
2022/10/18 07:25:36;;;;;;;13.35;5.75;;;;;;;17.23;69.54;100041.72;5185650;28;20179;-71
2022/10/18 07:28:27;;;;;;;17.92;5.30;;;;;;;17.28;69.75;100032.16;5199646;28;20132;-71
2022/10/18 07:31:17;;;;;;;16.92;6.32;;;;;;;17.34;69.73;100044.09;5199870;28;20053;-71
2022/10/18 07:34:10;;;;;;;12.40;5.90;;;;;;;17.40;69.09;100042.59;5203243;28;20065;-70
2022/10/18 07:37:01;;;;;;;10.38;5.55;;;;;;;17.41;69.42;100046.94;5195298;28;20056;-70
2022/10/18 07:39:50;;;;;;;13.68;5.82;;;;;;;17.40;69.68;100040.75;5197820;28;20654;-71
2022/10/18 07:42:41;;;;;;;13.55;5.60;;;;;;;17.44;69.22;100038.59;5178362;28;20406;-71
2022/10/18 07:45:31;;;;;;;10.32;5.60;;;;;;;17.58;69.47;100048.69;5188480;28;20069;-70
2022/10/18 07:48:21;;;;;;;16.05;5.97;;;;;;;17.67;69.85;100046.88;5209477;28;20053;-71
2022/10/18 07:51:12;;;;;;;12.90;7.30;;;;;;;17.87;68.77;100036.72;5200976;28;20057;-71
2022/10/18 07:54:02;;;;;;;9.30;5.85;;;;;;;17.89;69.43;100037.41;5195480;28;20168;-71
2022/10/18 07:56:52;;;;;;;14.15;6.88;;;;;;;18.04;68.97;100044.59;5192617;28;20180;-71
2022/10/18 07:59:46;;;;;;;14.68;7.20;;;;;;;18.11;69.62;100055.53;5166952;28;20057;-71
2022/10/18 08:02:40;;;;;;;14.73;7.28;;;;;;;18.20;68.64;100046.47;5175479;28;20041;-71
2022/10/18 08:05:30;;;;;;;28.77;9.43;;;;;;;18.29;67.74;100053.53;5194931;28;20054;-70
2022/10/18 08:08:23;;;;;;;12.27;7.35;;;;;;;18.41;68.03;100055.84;5200786;28;20100;-71
2022/10/18 08:11:16;;;;;;;14.25;6.95;;;;;;;18.21;69.69;100064.28;5207268;28;20825;-71
2022/10/18 08:14:06;;;;;;;12.82;6.70;;;;;;;18.13;70.31;100060.72;5185716;28;20096;-71
2022/10/18 08:16:56;;;;;;;13.55;6.40;;;;;;;17.92;69.96;100047.81;5200179;28;20048;-71
2022/10/18 08:19:46;;;;;;;14.48;6.20;;;;;;;18.15;69.70;100053.38;5185298;28;20056;-72
2022/10/18 08:22:56;;;;;;;17.35;7.72;;;;;;;18.13;69.27;100071.47;5192259;28;20061;-71
2022/10/18 08:25:49;;;;;;;12.60;6.50;;;;;;;18.22;69.02;100067.78;5208659;28;20045;-71
2022/10/18 08:28:40;;;;;;;14.88;7.10;;;;;;;18.31;69.20;100088.28;5202714;28;20422;-70
2022/10/18 08:31:42;;;;;;;18.35;6.70;;;;;;;18.36;69.27;100090.44;5182708;28;20053;-69
2022/10/18 08:34:33;;;;;;;17.23;6.28;;;;;;;18.22;69.48;100091.97;5200917;28;20435;-71
2022/10/18 08:37:24;;;;;;;14.38;6.30;;;;;;;18.49;69.23;100097.00;5197515;28;20050;-70
2022/10/18 08:40:14;;;;;;;21.35;7.00;;;;;;;17.93;69.86;100093.25;5190918;28;20059;-70
2022/10/18 08:43:13;;;;;;;12.75;6.78;;;;;;;17.93;69.42;100095.94;5192892;28;20049;-70
2022/10/18 08:46:11;;;;;;;15.23;6.93;;;;;;;18.31;68.75;100086.44;5200525;28;20053;-71
2022/10/18 08:49:03;;;;;;;13.25;6.03;;;;;;;18.43;67.43;100091.44;5197799;28;20053;-71
2022/10/18 08:51:53;;;;;;;15.27;5.93;;;;;;;18.61;66.54;100083.22;5201094;28;20053;-69
2022/10/18 08:55:00;;;;;;;15.15;6.38;;;;;;;18.60;67.11;100085.06;5198887;28;20061;-70
2022/10/18 08:57:51;;;;;;;11.82;6.38;;;;;;;18.65;66.56;100069.28;5197741;28;20084;-70
2022/10/18 09:01:06;;;;;;;14.10;6.28;;;;;;;18.88;66.91;100095.50;5185445;28;20148;-68
2022/10/18 09:04:15;;;;;;;12.95;5.70;;;;;;;18.93;66.15;100109.25;5195558;28;20045;-69
2022/10/18 09:07:36;;;;;;;17.95;6.70;;;;;;;19.01;65.53;100102.00;5185220;28;20100;-70
2022/10/18 09:10:47;;;;;;;8.63;5.78;;;;;;;19.35;65.56;100119.72;5193898;28;20059;-69
2022/10/18 09:14:13;;;;;;;10.75;5.90;;;;;;;18.99;65.07;100105.88;5201221;28;20053;-70
2022/10/18 09:17:26;;;;;;;20.60;6.78;;;;;;;19.15;65.95;100121.13;5199775;28;20099;-69
2022/10/18 09:20:27;;;;;;;12.98;5.40;;;;;;;19.27;64.70;100119.78;5193029;28;20045;-68
2022/10/18 09:23:20;;;;;;;13.60;5.32;;;;;;;19.43;64.13;100124.22;5196512;28;20420;-68
2022/10/18 09:26:19;;;;;;;13.60;5.32;;;;;;;19.30;65.19;100083.59;5196097;28;20514;-68
2022/10/18 09:29:25;;;;;;;11.15;5.18;;;;;;;19.52;64.33;100114.28;5201169;28;20161;-70
2022/10/18 09:32:44;;;;;;;14.23;5.18;;;;;;;19.77;64.28;100117.72;5200399;28;20127;-70
2022/10/18 09:36:04;;;;;;;11.20;4.90;;;;;;;19.82;62.57;100112.66;5206589;28;20411;-70
2022/10/18 09:39:02;;;;;;;11.80;5.07;;;;;;;20.32;62.79;100111.34;5199910;28;20184;-70
2022/10/18 09:42:06;;;;;;;12.40;4.68;;;;;;;20.62;62.75;100109.59;5203148;28;20045;-70
2022/10/18 09:45:00;;;;;;;12.68;4.63;;;;;;;20.71;60.73;100116.63;5202284;28;20061;-69
2022/10/18 09:48:05;;;;;;;13.18;5.25;;;;;;;21.18;61.31;100111.94;5199361;28;20609;-70
2022/10/18 09:51:11;;;;;;;8.65;4.82;;;;;;;22.25;60.27;100121.22;5201880;28;20061;-70
2022/10/18 09:54:04;;;;;;;12.27;4.97;;;;;;;22.94;55.81;100109.78;5202940;28;20591;-69
2022/10/18 09:57:09;;;;;;;11.95;4.45;;;;;;;23.41;55.31;100110.94;5187201;28;20049;-70
2022/10/18 10:00:02;;;;;;;11.25;4.78;;;;;;;23.67;54.40;100109.38;5203833;28;20060;-73
2022/10/18 10:02:54;;;;;;;9.30;4.30;;;;;;;23.14;55.32;100106.38;5202380;28;20079;-73
2022/10/18 10:05:44;;;;;;;12.00;4.20;;;;;;;23.66;55.76;100105.00;5204305;28;20052;-73
2022/10/18 10:08:34;;;;;;;8.73;4.00;;;;;;;23.86;54.29;100114.06;5200505;28;20080;-74
2022/10/18 10:11:39;;;;;;;20.63;4.45;;;;;;;24.48;53.87;100105.91;5190771;28;20053;-69
2022/10/18 10:14:29;;;;;;;5.38;3.90;;;;;;;24.53;52.87;100108.81;5183734;28;20132;-69
2022/10/18 10:17:23;;;;;;;7.10;3.88;;;;;;;25.07;53.79;100095.03;5204000;28;20543;-71
2022/10/18 10:20:20;;;;;;;8.18;3.33;;;;;;;25.29;52.01;100108.34;5203836;28;20080;-70
2022/10/18 10:23:13;;;;;;;7.32;3.70;;;;;;;25.56;50.87;100098.22;5195928;28;20064;-70
2022/10/18 10:26:19;;;;;;;6.47;2.93;;;;;;;24.71;52.61;100095.47;5203431;28;20052;-72
2022/10/18 10:29:47;;;;;;;6.30;3.25;;;;;;;24.36;53.72;100087.50;5213570;28;20503;-70
2022/10/18 10:32:46;;;;;;;7.82;3.13;;;;;;;23.54;55.12;100082.22;5204541;28;20064;-71
2022/10/18 10:35:39;;;;;;;7.35;2.80;;;;;;;23.66;56.36;100086.03;5202102;28;20144;-71
2022/10/18 10:39:00;;;;;;;7.63;3.13;;;;;;;23.80;56.26;100084.25;5199649;28;20180;-70
2022/10/18 10:41:59;;;;;;;10.88;3.75;;;;;;;23.59;54.47;100086.03;5200574;28;20045;-69
2022/10/18 10:44:54;;;;;;;6.88;2.95;;;;;;;23.60;55.00;100097.69;5200685;28;20148;-69
2022/10/18 10:47:44;;;;;;;14.07;3.13;;;;;;;23.17;55.16;100092.47;5196803;28;20065;-69
2022/10/18 10:50:59;;;;;;;6.55;3.20;;;;;;;23.01;56.64;100090.91;5205655;28;20118;-69
2022/10/18 10:53:58;;;;;;;6.68;3.67;;;;;;;23.08;56.98;100088.22;5212853;28;20191;-68
2022/10/18 10:56:54;;;;;;;8.35;2.70;;;;;;;23.17;55.37;100095.16;5196529;28;20095;-69
2022/10/18 10:59:47;;;;;;;8.45;3.47;;;;;;;23.45;57.93;100101.38;5200799;28;20050;-69
2022/10/18 11:02:38;;;;;;;8.68;3.25;;;;;;;24.00;54.29;100095.13;5184912;28;20057;-72
2022/10/18 11:05:28;;;;;;;5.65;3.00;;;;;;;23.47;55.08;100081.38;5199156;28;20132;-72
2022/10/18 11:08:23;;;;;;;6.32;3.00;;;;;;;23.28;55.60;100078.38;5189039;28;20132;-70
2022/10/18 11:11:30;;;;;;;3.92;2.50;;;;;;;23.23;54.90;100091.66;5198130;28;20046;-70
2022/10/18 11:14:25;;;;;;;9.13;3.03;;;;;;;23.79;54.39;100086.13;5204447;28;20040;-69
2022/10/18 11:17:26;;;;;;;4.93;2.70;;;;;;;23.20;54.75;100092.06;5200996;28;20052;-70
2022/10/18 11:20:26;;;;;;;10.48;2.55;;;;;;;23.38;54.14;100073.44;5189636;28;20077;-69
2022/10/18 11:23:17;;;;;;;9.38;2.83;;;;;;;23.17;55.26;100084.34;5202337;28;20057;-72
2022/10/18 11:26:10;;;;;;;10.13;2.90;;;;;;;23.17;55.07;100076.22;5198026;28;20083;-74
2022/10/18 11:29:25;;;;;;;5.88;2.80;;;;;;;23.26;55.73;100080.44;5184183;28;20049;-69
2022/10/18 11:32:40;;;;;;;9.02;3.00;;;;;;;22.51;57.01;100066.56;5208182;28;20053;-69
2022/10/18 11:35:54;;;;;;;9.25;3.30;;;;;;;23.38;55.74;100078.03;5194612;28;20049;-71
2022/10/18 11:39:01;;;;;;;8.13;2.83;;;;;;;23.64;54.70;100074.56;5199551;28;20097;-74
2022/10/18 11:42:13;;;;;;;12.73;2.90;;;;;;;22.66;55.96;100076.47;5200622;28;20759;-70
2022/10/18 11:45:09;;;;;;;7.28;2.83;;;;;;;23.61;55.21;100078.53;5182179;28;20101;-68
2022/10/18 11:48:31;;;;;;;6.57;3.30;;;;;;;22.49;57.16;100073.22;5181656;28;20051;-68
2022/10/18 11:51:59;;;;;;;7.30;2.83;;;;;;;22.83;56.33;100074.31;5200501;28;20639;-70
2022/10/18 11:55:24;;;;;;;3.72;2.28;;;;;;;23.44;55.09;100064.53;5199081;28;20195;-70
2022/10/18 11:58:36;;;;;;;7.80;3.58;;;;;;;23.25;55.63;100078.78;5190898;28;20045;-74
2022/10/18 12:01:35;;;;;;;4.93;2.50;;;;;;;23.71;56.73;100074.63;5194073;28;20053;-69
2022/10/18 12:04:41;;;;;;;4.57;2.70;;;;;;;23.53;55.93;100058.91;5194326;28;20055;-71
2022/10/18 12:08:06;;;;;;;8.77;2.85;;;;;;;23.54;55.55;100071.41;5181197;28;20048;-68
2022/10/18 12:11:01;;;;;;;7.55;2.60;;;;;;;23.59;54.98;100069.78;5196787;28;20057;-69
2022/10/18 12:14:02;;;;;;;8.98;2.90;;;;;;;23.48;54.64;100072.22;5195684;28;20227;-68
2022/10/18 12:16:57;;;;;;;7.28;3.00;;;;;;;22.84;56.88;100075.97;5191192;28;20221;-68
2022/10/18 12:20:31;;;;;;;6.43;3.00;;;;;;;22.53;57.52;100074.50;5192784;28;20127;-68
2022/10/18 12:23:36;;;;;;;4.30;2.60;;;;;;;23.05;57.44;100062.44;5205364;28;20527;-70
2022/10/18 12:26:28;;;;;;;8.10;2.83;;;;;;;23.41;56.57;100066.75;5194799;28;20072;-68
2022/10/18 12:29:33;;;;;;;5.38;2.85;;;;;;;21.98;58.41;100066.03;5199824;28;20049;-68
2022/10/18 12:32:27;;;;;;;7.05;2.70;;;;;;;21.84;59.13;100066.94;5195406;28;20064;-71
2022/10/18 12:35:19;;;;;;;6.00;2.72;;;;;;;22.87;57.21;100071.00;5186794;28;20049;-69
2022/10/18 12:38:30;;;;;;;5.50;2.50;;;;;;;22.22;58.22;100064.88;5178692;28;20414;-69
2022/10/18 12:41:40;;;;;;;5.55;2.33;;;;;;;22.19;57.92;100057.16;5193548;28;20056;-69
2022/10/18 12:44:33;;;;;;;5.18;2.83;;;;;;;22.31;57.99;100054.75;5181315;28;20055;-68
2022/10/18 12:47:24;;;;;;;4.70;2.53;;;;;;;22.61;57.72;100066.25;5199958;28;20056;-67
2022/10/18 12:50:36;;;;;;;8.88;2.60;;;;;;;22.55;57.77;100060.78;5183290;28;20415;-68
2022/10/18 12:53:28;;;;;;;4.65;2.40;;;;;;;22.65;56.05;100050.47;5195954;28;20127;-69
2022/10/18 12:56:27;;;;;;;5.95;2.20;;;;;;;22.77;56.89;100054.31;5198931;28;20314;-69
2022/10/18 12:59:18;;;;;;;5.28;2.70;;;;;;;22.79;56.79;100046.00;5180839;28;20052;-67
2022/10/18 13:02:22;;;;;;;9.68;2.90;;;;;;;22.49;56.68;100057.00;5200472;28;20052;-68
2022/10/18 13:05:48;;;;;;;4.47;2.38;;;;;;;22.18;58.79;100065.44;5201172;28;20060;-67
2022/10/18 13:08:44;;;;;;;5.35;2.50;;;;;;;22.26;58.45;100062.63;5195602;28;20191;-71
2022/10/18 13:11:35;;;;;;;6.32;2.53;;;;;;;22.86;58.05;100063.94;5199559;28;20075;-69
2022/10/18 13:14:36;;;;;;;4.45;3.03;;;;;;;22.42;58.16;100056.13;5198069;28;20065;-70
2022/10/18 13:17:43;;;;;;;6.75;3.15;;;;;;;22.31;59.03;100052.06;5200735;28;20049;-69
2022/10/18 13:20:39;;;;;;;4.95;3.20;;;;;;;22.12;59.28;100055.38;5196454;28;20129;-72
2022/10/18 13:24:04;;;;;;;4.10;3.15;;;;;;;22.33;58.63;100058.13;5197068;28;20045;-70
2022/10/18 13:26:58;;;;;;;3.42;2.90;;;;;;;22.56;58.73;100065.19;5197646;28;20064;-70
2022/10/18 13:30:28;;;;;;;4.93;3.17;;;;;;;22.36;58.82;100051.50;5201822;28;20060;-68
2022/10/18 13:33:29;;;;;;;4.25;2.70;;;;;;;22.70;57.46;100056.13;5200624;28;20060;-68
2022/10/18 13:36:28;;;;;;;4.30;3.20;;;;;;;22.54;58.43;100057.25;5198360;28;20061;-67